Orbital elements of FENGYUN 1C DEB
| Launched | 9 May 1999 |
| Flight ended | – |
| Launch site | Taiyuan Space Center, PRC |
| Owner | People's Republic of China |
| NORAD ID | 31437 |
| Date fetched |
Epoch osculation |
Inc. [°] |
Ecc. | RA asc node [hr] |
Arg Peri. [°] |
Mean anom [°] |
Mean motion [rev/day] |
Abs. mag |
| Date fetched |
Epoch osculation |
Inc. [°] |
Ecc. | RA asc node [hr] |
Arg Peri. [°] |
Mean anom [°] |
Mean motion [rev/day] |
Abs. mag |
| 2026 May 01 17:56 | 2026 Apr 28 04:35:52 | 98.8551 | 0.00155 | 13.9851 | 198.8201 | 161.2417 | 14.44708 | – |
| 2026 Apr 30 17:56 | 2026 Apr 28 04:35:52 | 98.8551 | 0.00155 | 13.9851 | 198.8201 | 161.2417 | 14.44708 | – |
| 2026 Apr 29 17:57 | 2026 Apr 21 04:42:40 | 98.8549 | 0.00148 | 13.4993 | 218.1432 | 161.2417 | 14.44708 | – |
| 2026 Apr 28 17:56 | 2026 Apr 21 04:42:40 | 98.8549 | 0.00148 | 13.4993 | 218.1432 | 161.2417 | 14.44708 | – |
| 2026 Apr 27 17:58 | 2026 Apr 21 04:42:40 | 98.8549 | 0.00148 | 13.4993 | 218.1432 | 161.2417 | 14.44708 | – |
| 2026 Apr 26 17:58 | 2026 Apr 21 04:42:40 | 98.8549 | 0.00148 | 13.4993 | 218.1432 | 161.2417 | 14.44708 | – |
| 2026 Apr 25 17:58 | 2026 Apr 21 04:42:40 | 98.8549 | 0.00148 | 13.4993 | 218.1432 | 161.2417 | 14.44708 | – |
| 2026 Apr 24 17:59 | 2026 Apr 21 04:42:40 | 98.8549 | 0.00148 | 13.4993 | 218.1432 | 161.2417 | 14.44708 | – |
| 2026 Apr 23 17:57 | 2026 Apr 19 04:30:16 | 98.8551 | 0.00146 | 13.3598 | 224.0718 | 161.2417 | 14.44708 | – |
| 2026 Apr 22 17:57 | 2026 Apr 19 04:30:16 | 98.8551 | 0.00146 | 13.3598 | 224.0718 | 161.2417 | 14.44708 | – |
| 2026 Apr 21 17:57 | 2026 Apr 19 04:30:16 | 98.8551 | 0.00146 | 13.3598 | 224.0718 | 161.2417 | 14.44708 | – |
| 2026 Apr 20 17:57 | 2026 Apr 19 04:30:16 | 98.8551 | 0.00146 | 13.3598 | 224.0718 | 161.2417 | 14.44708 | – |
| 2026 Apr 19 17:58 | 2026 Apr 19 04:30:16 | 98.8551 | 0.00146 | 13.3598 | 224.0718 | 161.2417 | 14.44708 | – |
| 2026 Apr 18 17:56 | 2026 Apr 13 05:32:36 | 98.8550 | 0.00138 | 12.9462 | 241.7402 | 161.2417 | 14.44708 | – |
| 2026 Apr 16 17:57 | 2026 Apr 13 05:32:36 | 98.8550 | 0.00138 | 12.9462 | 241.7402 | 161.2417 | 14.44708 | – |
| 2026 Apr 14 17:57 | 2026 Apr 13 05:32:36 | 98.8550 | 0.00138 | 12.9462 | 241.7402 | 161.2417 | 14.44708 | – |
| 2026 Apr 13 17:57 | 2026 Apr 13 05:32:36 | 98.8550 | 0.00138 | 12.9462 | 241.7402 | 161.2417 | 14.44708 | – |
| 2026 Apr 12 17:57 | 2026 Apr 07 04:54:56 | 98.8552 | 0.00132 | 12.5279 | 260.5174 | 161.2417 | 14.44708 | – |
| 2026 Apr 11 17:57 | 2026 Apr 07 04:54:56 | 98.8552 | 0.00132 | 12.5279 | 260.5174 | 161.2417 | 14.44708 | – |
| 2026 Apr 10 17:58 | 2026 Apr 07 04:54:56 | 98.8552 | 0.00132 | 12.5279 | 260.5174 | 161.2417 | 14.44708 | – |
| 2026 Apr 09 18:01 | 2026 Apr 07 04:54:56 | 98.8552 | 0.00132 | 12.5279 | 260.5174 | 161.2417 | 14.44708 | – |
| 2026 Apr 08 17:57 | 2026 Apr 07 04:54:56 | 98.8552 | 0.00132 | 12.5279 | 260.5174 | 161.2417 | 14.44708 | – |
| 2026 Apr 07 17:57 | 2026 Apr 02 05:13:03 | 98.8555 | 0.00128 | 12.1816 | 275.9952 | 161.2417 | 14.44708 | – |
| 2026 Apr 06 17:57 | 2026 Apr 02 05:13:03 | 98.8555 | 0.00128 | 12.1816 | 275.9952 | 161.2417 | 14.44708 | – |
| 2026 Apr 05 17:56 | 2026 Apr 02 05:13:03 | 98.8555 | 0.00128 | 12.1816 | 275.9952 | 161.2417 | 14.44708 | – |
| 2026 Apr 04 17:57 | 2026 Apr 02 05:13:03 | 98.8555 | 0.00128 | 12.1816 | 275.9952 | 161.2417 | 14.44708 | – |